Mexican Water, Arizona
Current Conditions -  °F | °C
As of 2:53 AM on Thursday 23 Oct 2014 (Local Time) from KCEZ Reporting Station
Clear Clear  
Wind Chill: 32°   Ceiling: Unl
Heat Index: 37°   Visibility: 10mi
Dew Point: 33°   Wind: 6mph
Humidity: 86%   Direction: 110°ESE
Pressure: 30.26"   Gusts: NA
Location:  36.7518°N, 109.365°W
Report Text: KCEZ 230853Z AUTO 11005KT 10SM CLR 03/01 A3026 RMK AO2 SLP202 T00280006 53003
Loading
Personal Weather Stations






























Interactive Weather Map
Tropical Storm Tracking
New forecast layout! Learn more

10-Day Weather Forecast

Advertisements
Track Severe Weather on mobile